Nashville — WDB9884 — position and weather

sailwx.info

Track history (hours):
 
Tides and Currents Weather Stations Pressure Air Temp Water Temp Dewpoint Dewpoint Depression Visibility Wind Speed Wind Dir Waves Ship Positions

Nashville

Owner: Marathon Petroleum Company LP, Findlay, OH. More information available from US FCC via Universal Licensing System and Coast Guard Vessel Documentation Center.

Last reported at 2018-Jun-14 04:26 UTC. Time now 2018-Jun-24 12:56 UTC.
Position N 32°49' W 091°09'.
Warning: this ship's position is 10 days out of date.

Length 46 m; draft 2.7 m.

Type: Towing. MMSI: 366984440.

Date/timePositionNaut miles runAvg speedWind from/ knotsBaromVisibWave heightAir tempDewpointWater temp
2018-Jun-14 04:26N 32°49' W 091°09'9 2.6
2018-Jun-14 01:06N 32°40' W 091°06'0 4.1
2018-Jun-14 01:00N 32°40' W 091°07'3 3.1
2018-Jun-13 23:56N 32°38' W 091°09'2 3.8
2018-Jun-13 23:29N 32°36' W 091°08'2 3.5
2018-Jun-13 23:00N 32°35' W 091°07'2 3.7
2018-Jun-13 22:29N 32°33' W 091°06'3 4.3
2018-Jun-13 21:47N 32°30' W 091°07'1 4.5
2018-Jun-13 21:30N 32°29' W 091°07'2 4.0
2018-Jun-13 21:00N 32°27' W 091°05'2 4.3
2018-Jun-13 20:30N 32°26' W 091°03'2 4.0
2018-Jun-13 20:00N 32°26' W 091°01'2 3.6
2018-Jun-13 19:30N 32°24' W 090°59'2 3.7
2018-Jun-13 19:00N 32°23' W 091°00'2 4.9
2018-Jun-13 18:30N 32°21' W 090°58'2 3.9
2018-Jun-13 18:00N 32°21' W 090°56'2 3.6
2018-Jun-13 17:30N 32°20' W 090°54'2 3.4
2018-Jun-13 17:00N 32°18' W 090°55'0 0.6
2018-Jun-13 16:30N 32°18' W 090°55'0 0.0
2018-Jun-13 16:00N 32°18' W 090°55'0 0.0
2018-Jun-13 15:30N 32°18' W 090°55'0 0.0
2018-Jun-13 15:00N 32°18' W 090°55'2 3.7
2018-Jun-13 14:30N 32°17' W 090°57'2 3.5
2018-Jun-13 14:00N 32°16' W 090°58'2 3.8
2018-Jun-13 13:30N 32°14' W 090°59'2 4.8
2018-Jun-13 13:00N 32°11' W 090°60'2 3.5
2018-Jun-13 12:30N 32°10' W 091°00'2 3.7
2018-Jun-13 12:00N 32°08' W 091°00'2 3.4
2018-Jun-13 11:30N 32°07' W 091°02'2 3.8
2018-Jun-13 11:00N 32°08' W 091°05'2 3.2
2018-Jun-13 10:30N 32°08' W 091°06'2 4.1
2018-Jun-13 09:56N 32°06' W 091°05'2 4.2
2018-Jun-13 09:27N 32°04' W 091°04'2 3.3
2018-Jun-13 09:00N 32°03' W 091°04'2 3.6
2018-Jun-13 08:30N 32°01' W 091°04'2 3.6
2018-Jun-13 08:00N 31°60' W 091°06'2 3.6
2018-Jun-13 07:30N 31°59' W 091°08'2 4.2
2018-Jun-13 06:59N 31°59' W 091°10'2 3.7
2018-Jun-13 06:28N 31°57' W 091°11'2 4.6
2018-Jun-13 05:59N 31°55' W 091°12'2 4.0
2018-Jun-13 05:30N 31°53' W 091°13'2 3.8
2018-Jun-13 04:59N 31°52' W 091°14'2 3.3
2018-Jun-13 04:29N 31°51' W 091°16'2 3.7
2018-Jun-13 03:57N 31°51' W 091°19'2 4.1
2018-Jun-13 03:21N 31°50' W 091°21'  
2018-Jun-05 12:22N 32°05' W 091°04'3 9.0
2018-Jun-05 12:00N 32°07' W 091°06'4 7.7
2018-Jun-05 11:30N 32°07' W 091°02'4 8.4
2018-Jun-05 10:59N 32°11' W 090°60'4 9.1
2018-Jun-05 10:30N 32°15' W 090°58'4 8.7
2018-Jun-05 10:00N 32°18' W 090°55'3 5.9
2018-Jun-05 09:31N 32°21' W 090°57'3 6.9
2018-Jun-05 09:01N 32°23' W 090°60'4 7.5
2018-Jun-05 08:30N 32°26' W 091°02'5 9.3
2018-Jun-05 08:00N 32°29' W 091°07'5 9.2
2018-Jun-05 07:30N 32°33' W 091°06'510.1
2018-Jun-05 07:00N 32°38' W 091°09'4 7.9
2018-Jun-05 06:29N 32°40' W 091°06'4 7.6
2018-Jun-05 06:00N 32°44' W 091°03'4 8.3
2018-Jun-05 05:29N 32°44' W 091°08'  
Track history (hours):
 
Tides and Currents Weather Stations Pressure Air Temp Water Temp Dewpoint Dewpoint Depression Visibility Wind Speed Wind Dir Waves Ship Positions

Nashville

Owner: Marathon Petroleum Company LP, Findlay, OH. More information available from US FCC via Universal Licensing System and Coast Guard Vessel Documentation Center.

Last reported at 2018-Jun-14 04:26 UTC. Time now 2018-Jun-24 12:56 UTC.
Position N 32°49' W 091°09'.
Warning: this ship's position is 10 days out of date.

Length 46 m; draft 2.7 m.

Type: Towing. MMSI: 366984440.

Date/timePositionNaut miles runAvg speedWind from/ knotsBaromVisibWave heightAir tempDewpointWater temp
2018-Jun-14 04:26N 32°49' W 091°09'9 2.6
2018-Jun-14 01:06N 32°40' W 091°06'0 4.1
2018-Jun-14 01:00N 32°40' W 091°07'3 3.1
2018-Jun-13 23:56N 32°38' W 091°09'2 3.8
2018-Jun-13 23:29N 32°36' W 091°08'2 3.5
2018-Jun-13 23:00N 32°35' W 091°07'2 3.7
2018-Jun-13 22:29N 32°33' W 091°06'3 4.3
2018-Jun-13 21:47N 32°30' W 091°07'1 4.5
2018-Jun-13 21:30N 32°29' W 091°07'2 4.0
2018-Jun-13 21:00N 32°27' W 091°05'2 4.3
2018-Jun-13 20:30N 32°26' W 091°03'2 4.0
2018-Jun-13 20:00N 32°26' W 091°01'2 3.6
2018-Jun-13 19:30N 32°24' W 090°59'2 3.7
2018-Jun-13 19:00N 32°23' W 091°00'2 4.9
2018-Jun-13 18:30N 32°21' W 090°58'2 3.9
2018-Jun-13 18:00N 32°21' W 090°56'2 3.6
2018-Jun-13 17:30N 32°20' W 090°54'2 3.4
2018-Jun-13 17:00N 32°18' W 090°55'0 0.6
2018-Jun-13 16:30N 32°18' W 090°55'0 0.0
2018-Jun-13 16:00N 32°18' W 090°55'0 0.0
2018-Jun-13 15:30N 32°18' W 090°55'0 0.0
2018-Jun-13 15:00N 32°18' W 090°55'2 3.7
2018-Jun-13 14:30N 32°17' W 090°57'2 3.5
2018-Jun-13 14:00N 32°16' W 090°58'2 3.8
2018-Jun-13 13:30N 32°14' W 090°59'2 4.8
2018-Jun-13 13:00N 32°11' W 090°60'2 3.5
2018-Jun-13 12:30N 32°10' W 091°00'2 3.7
2018-Jun-13 12:00N 32°08' W 091°00'2 3.4
2018-Jun-13 11:30N 32°07' W 091°02'2 3.8
2018-Jun-13 11:00N 32°08' W 091°05'2 3.2
2018-Jun-13 10:30N 32°08' W 091°06'2 4.1
2018-Jun-13 09:56N 32°06' W 091°05'2 4.2
2018-Jun-13 09:27N 32°04' W 091°04'2 3.3
2018-Jun-13 09:00N 32°03' W 091°04'2 3.6
2018-Jun-13 08:30N 32°01' W 091°04'2 3.6
2018-Jun-13 08:00N 31°60' W 091°06'2 3.6
2018-Jun-13 07:30N 31°59' W 091°08'2 4.2
2018-Jun-13 06:59N 31°59' W 091°10'2 3.7
2018-Jun-13 06:28N 31°57' W 091°11'2 4.6
2018-Jun-13 05:59N 31°55' W 091°12'2 4.0
2018-Jun-13 05:30N 31°53' W 091°13'2 3.8
2018-Jun-13 04:59N 31°52' W 091°14'2 3.3
2018-Jun-13 04:29N 31°51' W 091°16'2 3.7
2018-Jun-13 03:57N 31°51' W 091°19'2 4.1
2018-Jun-13 03:21N 31°50' W 091°21'  
2018-Jun-05 12:22N 32°05' W 091°04'3 9.0
2018-Jun-05 12:00N 32°07' W 091°06'4 7.7
2018-Jun-05 11:30N 32°07' W 091°02'4 8.4
2018-Jun-05 10:59N 32°11' W 090°60'4 9.1
2018-Jun-05 10:30N 32°15' W 090°58'4 8.7
2018-Jun-05 10:00N 32°18' W 090°55'3 5.9
2018-Jun-05 09:31N 32°21' W 090°57'3 6.9
2018-Jun-05 09:01N 32°23' W 090°60'4 7.5
2018-Jun-05 08:30N 32°26' W 091°02'5 9.3
2018-Jun-05 08:00N 32°29' W 091°07'5 9.2
2018-Jun-05 07:30N 32°33' W 091°06'510.1
2018-Jun-05 07:00N 32°38' W 091°09'4 7.9
2018-Jun-05 06:29N 32°40' W 091°06'4 7.6
2018-Jun-05 06:00N 32°44' W 091°03'4 8.3
2018-Jun-05 05:29N 32°44' W 091°08'  

Dump ship's entire track history